createdAt,value
2019-01-11T00:02:18.230Z,3.17
2019-01-11T00:04:47.937Z,3.37
2019-01-11T00:07:17.600Z,2.60
2019-01-11T00:09:47.290Z,3.23
2019-01-11T00:12:16.950Z,2.93
2019-01-11T00:14:46.630Z,3.67
2019-01-11T00:17:16.346Z,3.33
2019-01-11T00:19:46.116Z,3.50
2019-01-11T00:22:15.769Z,3.73
2019-01-11T00:24:45.468Z,4.00
2019-01-11T00:27:15.238Z,3.40
2019-01-11T00:29:44.985Z,3.13
2019-01-11T00:32:14.749Z,3.50
2019-01-11T00:34:44.422Z,3.70
2019-01-11T00:37:14.407Z,3.23
2019-01-11T00:39:44.170Z,3.97
2019-01-11T00:42:13.856Z,3.73
2019-01-11T00:44:43.689Z,4.03
2019-01-11T00:47:13.432Z,4.33
2019-01-11T00:49:43.101Z,3.60
2019-01-11T00:52:12.944Z,4.23
2019-01-11T00:54:42.690Z,4.13
2019-01-11T00:57:12.333Z,5.10
2019-01-11T00:59:42.010Z,4.60
2019-01-11T01:02:11.892Z,5.80
2019-01-11T01:04:41.599Z,5.37
2019-01-11T01:07:12.054Z,5.57
2019-01-11T01:09:41.769Z,5.67
2019-01-11T01:12:11.956Z,5.80
2019-01-11T01:14:41.722Z,5.57
2019-01-11T01:17:11.627Z,6.73
2019-01-11T01:19:41.344Z,6.93
2019-01-11T01:22:11.281Z,7.53
2019-01-11T01:24:41.008Z,8.23
2019-01-11T01:27:10.840Z,8.63
2019-01-11T01:29:40.699Z,9.43
2019-01-11T01:32:10.483Z,9.63
2019-01-11T01:34:40.227Z,8.77
2019-01-11T01:37:09.999Z,10.30
2019-01-11T01:39:39.694Z,10.23
2019-01-11T01:42:09.479Z,10.40
2019-01-11T01:44:39.299Z,10.00
2019-01-11T01:47:09.719Z,8.23
2019-01-11T01:49:39.527Z,8.40
2019-01-11T01:52:09.317Z,7.30
2019-01-11T01:54:39.161Z,7.27
2019-01-11T01:57:08.997Z,7.50
2019-01-11T01:59:38.848Z,7.50
2019-01-11T02:02:08.648Z,7.47
2019-01-11T02:04:38.398Z,6.53
2019-01-11T02:07:08.188Z,7.47
2019-01-11T02:09:37.962Z,7.30
2019-01-11T02:12:07.770Z,6.73
2019-01-11T02:14:37.433Z,7.00
2019-01-11T02:17:07.245Z,7.50
2019-01-11T02:19:36.989Z,8.03
2019-01-11T02:22:06.940Z,7.90
2019-01-11T02:24:36.682Z,8.40
2019-01-11T02:27:06.455Z,7.63
2019-01-11T02:29:36.161Z,8.37
2019-01-11T02:32:06.148Z,7.97
2019-01-11T02:34:35.849Z,8.50
2019-01-11T02:37:05.773Z,8.40
2019-01-11T02:39:35.477Z,9.17
2019-01-11T02:42:05.487Z,8.53
2019-01-11T02:44:35.252Z,9.80
2019-01-11T02:47:05.059Z,9.80
2019-01-11T02:49:39.936Z,10.07
2019-01-11T02:52:06.900Z,9.83
2019-01-11T02:54:36.572Z,9.57
2019-01-11T02:57:06.398Z,10.00
2019-01-11T02:59:36.059Z,10.17
2019-01-11T03:02:06.425Z,11.80
2019-01-11T03:04:36.172Z,11.53
2019-01-11T03:07:05.989Z,11.60
2019-01-11T03:09:35.664Z,11.53
2019-01-11T03:12:05.633Z,13.60
2019-01-11T03:14:35.462Z,12.80
2019-01-11T03:17:05.406Z,13.17
2019-01-11T03:19:35.190Z,14.03
2019-01-11T03:22:05.172Z,14.70
2019-01-11T03:24:34.901Z,14.27
2019-01-11T03:27:04.649Z,15.03
2019-01-11T03:29:34.773Z,14.40
2019-01-11T03:32:04.798Z,15.63
2019-01-11T03:34:36.116Z,16.30
2019-01-11T03:37:06.240Z,15.40
2019-01-11T03:39:35.876Z,15.67
2019-01-11T03:42:07.382Z,15.93
2019-01-11T03:44:37.043Z,15.63
2019-01-11T03:47:06.951Z,15.17
2019-01-11T03:49:36.615Z,15.90
2019-01-11T03:52:06.611Z,14.47
2019-01-11T03:54:36.361Z,15.23
2019-01-11T03:57:06.323Z,15.57
2019-01-11T03:59:36.168Z,15.37
2019-01-11T04:02:06.307Z,14.97
2019-01-11T04:04:36.047Z,15.40
2019-01-11T04:07:06.034Z,14.63
2019-01-11T04:09:35.811Z,15.47
2019-01-11T04:12:05.627Z,15.93
2019-01-11T04:14:35.392Z,14.87
2019-01-11T04:17:05.303Z,14.60
2019-01-11T04:19:35.052Z,14.63
2019-01-11T04:22:09.421Z,14.60
2019-01-11T04:24:40.908Z,14.37
2019-01-11T04:27:10.668Z,14.70
2019-01-11T04:29:40.348Z,15.03
2019-01-11T04:32:10.201Z,14.87
2019-01-11T04:34:39.948Z,15.80
2019-01-11T04:37:09.614Z,15.07
2019-01-11T04:39:39.299Z,14.83
2019-01-11T04:42:09.021Z,16.27
2019-01-11T04:44:38.713Z,15.50
2019-01-11T04:47:08.357Z,14.87
2019-01-11T04:49:38.628Z,15.50
2019-01-11T04:52:08.378Z,16.60
2019-01-11T04:54:38.092Z,16.03
2019-01-11T04:57:07.831Z,17.37
2019-01-11T04:59:37.899Z,15.87
2019-01-11T05:02:07.568Z,17.30
2019-01-11T05:04:37.258Z,16.27
2019-01-11T05:07:06.983Z,16.00
2019-01-11T05:09:36.662Z,16.00
2019-01-11T05:12:06.330Z,18.03
2019-01-11T05:14:36.061Z,16.57
2019-01-11T05:17:05.768Z,17.27
2019-01-11T05:19:35.522Z,17.77
2019-01-11T05:22:05.516Z,18.80
2019-01-11T05:24:35.306Z,18.50
2019-01-11T05:27:05.052Z,17.73
2019-01-11T05:29:34.745Z,18.30
2019-01-11T05:32:04.627Z,19.50
2019-01-11T05:34:34.417Z,18.30
2019-01-11T05:37:04.210Z,18.90
2019-01-11T05:39:33.982Z,19.83
2019-01-11T05:42:03.726Z,20.03
2019-01-11T05:44:33.592Z,21.40
2019-01-11T05:47:03.245Z,18.63
2019-01-11T05:49:32.918Z,19.10
2019-01-11T05:52:02.633Z,19.57
2019-01-11T05:54:32.348Z,19.47
2019-01-11T05:57:02.137Z,19.23
2019-01-11T05:59:31.851Z,20.73
2019-01-11T06:02:02.550Z,21.63
2019-01-11T06:04:33.904Z,21.63
2019-01-11T06:07:14.133Z,21.43
2019-01-11T06:09:43.771Z,22.50
2019-01-11T06:12:13.545Z,21.67
2019-01-11T06:14:43.870Z,23.77
2019-01-11T06:17:14.100Z,24.43
2019-01-11T06:19:43.891Z,21.60
2019-01-11T06:22:13.764Z,23.10
2019-01-11T06:24:43.485Z,22.20
2019-01-11T06:27:13.323Z,24.07
2019-01-11T06:29:43.063Z,23.17
2019-01-11T06:32:13.087Z,23.37
2019-01-11T06:34:42.943Z,23.70
2019-01-11T06:37:12.597Z,24.27
2019-01-11T06:39:42.373Z,23.33
2019-01-11T06:42:13.668Z,23.47
2019-01-11T06:44:43.378Z,22.87
2019-01-11T06:47:13.172Z,23.33
2019-01-11T06:49:42.896Z,23.87
2019-01-11T06:52:12.647Z,22.53
2019-01-11T06:54:42.362Z,23.37
2019-01-11T06:57:12.034Z,24.50
2019-01-11T06:59:41.751Z,23.67
2019-01-11T07:02:11.609Z,23.70
2019-01-11T07:04:41.635Z,24.23
2019-01-11T07:07:11.442Z,25.23
2019-01-11T07:09:41.197Z,24.17
2019-01-11T07:12:11.194Z,25.27
2019-01-11T07:14:41.010Z,26.57
2019-01-11T07:17:10.842Z,25.20
2019-01-11T07:19:40.506Z,26.73
2019-01-11T07:22:10.359Z,24.70
2019-01-11T07:24:40.169Z,25.73
2019-01-11T07:27:09.980Z,25.87
2019-01-11T07:29:39.734Z,25.03
2019-01-11T07:32:09.382Z,25.57
2019-01-11T07:34:39.451Z,24.73
2019-01-11T07:37:09.220Z,24.80
2019-01-11T07:39:38.967Z,26.10
2019-01-11T07:42:09.146Z,25.67
2019-01-11T07:44:38.896Z,25.30
2019-01-11T07:47:08.775Z,25.57
2019-01-11T07:49:38.492Z,24.37
2019-01-11T07:52:08.322Z,24.93
2019-01-11T07:54:38.008Z,23.63
2019-01-11T07:57:07.876Z,23.60
2019-01-11T07:59:37.553Z,22.97
2019-01-11T08:02:07.385Z,23.97
2019-01-11T08:04:37.129Z,22.77
2019-01-11T08:07:06.982Z,23.27
2019-01-11T08:09:36.708Z,21.73
2019-01-11T08:12:06.804Z,23.10
2019-01-11T08:14:36.622Z,25.07
2019-01-11T08:17:06.789Z,23.33
2019-01-11T08:19:36.488Z,23.50
2019-01-11T08:22:07.905Z,23.47
2019-01-11T08:24:39.396Z,22.70
2019-01-11T08:27:09.037Z,22.33
2019-01-11T08:29:38.689Z,21.67
2019-01-11T08:32:32.799Z,23.30
2019-01-11T08:35:04.252Z,23.17
2019-01-11T08:37:34.000Z,23.90
2019-01-11T08:40:03.947Z,22.97
2019-01-11T08:42:33.738Z,23.57
2019-01-11T08:45:04.941Z,23.63
2019-01-11T08:47:34.754Z,22.83
2019-01-11T08:50:07.936Z,24.20
2019-01-11T08:52:37.658Z,22.73
2019-01-11T08:55:07.850Z,24.07
2019-01-11T08:57:37.580Z,23.07
2019-01-11T09:00:12.122Z,23.43
2019-01-11T09:02:41.888Z,23.20
2019-01-11T09:05:11.760Z,26.37
2019-01-11T09:07:41.797Z,25.10
2019-01-11T09:10:22.716Z,24.10
2019-01-11T09:12:49.551Z,23.50
2019-01-11T09:15:19.361Z,25.43
2019-01-11T09:18:02.909Z,25.17
2019-01-11T09:20:32.610Z,25.50
2019-01-11T09:23:02.298Z,25.40
2019-01-11T09:25:32.141Z,24.47
2019-01-11T09:28:02.092Z,25.43
2019-01-11T09:30:31.928Z,25.80
2019-01-11T09:33:01.956Z,25.70
2019-01-11T09:35:31.658Z,25.53
2019-01-11T09:38:01.415Z,26.67
2019-01-11T09:40:31.173Z,27.37
2019-01-11T09:43:01.025Z,26.43
2019-01-11T09:45:30.723Z,27.97
2019-01-11T09:48:00.460Z,26.77
2019-01-11T09:50:30.140Z,26.30
2019-01-11T09:52:59.945Z,26.93
2019-01-11T09:55:30.709Z,28.17
2019-01-11T09:58:00.422Z,27.93
2019-01-11T10:00:30.577Z,27.47
2019-01-11T10:03:01.923Z,28.17
2019-01-11T10:05:31.959Z,26.33
2019-01-11T10:08:02.671Z,25.03
2019-01-11T10:10:32.391Z,27.47
2019-01-11T10:13:02.188Z,27.37
2019-01-11T10:15:32.072Z,28.87
2019-01-11T10:18:01.830Z,25.60
2019-01-11T10:20:31.479Z,25.63
2019-01-11T10:23:01.241Z,26.13
2019-01-11T10:25:31.050Z,26.17
2019-01-11T10:28:00.764Z,27.70
2019-01-11T10:30:30.471Z,27.67
2019-01-11T10:33:00.206Z,25.83
2019-01-11T10:35:29.929Z,28.20
2019-01-11T10:37:59.657Z,29.77
2019-01-11T10:40:29.353Z,28.07
2019-01-11T10:42:59.973Z,30.47
2019-01-11T10:45:29.692Z,29.73
2019-01-11T10:47:59.539Z,30.93
2019-01-11T10:50:29.422Z,30.53
2019-01-11T10:52:59.114Z,32.00
2019-01-11T10:55:28.776Z,28.80
2019-01-11T10:57:58.451Z,30.60
2019-01-11T11:00:28.642Z,31.30
2019-01-11T11:02:58.646Z,30.63
2019-01-11T11:05:28.821Z,29.80
2019-01-11T11:07:58.729Z,30.40
2019-01-11T11:10:28.445Z,31.23
2019-01-11T11:12:58.160Z,30.33
2019-01-11T11:15:28.047Z,30.10
2019-01-11T11:17:58.206Z,34.40
2019-01-11T11:20:27.921Z,31.30
2019-01-11T11:22:57.801Z,32.50
2019-01-11T11:25:27.478Z,32.10
2019-01-11T11:27:57.183Z,31.63
2019-01-11T11:30:26.861Z,29.97
2019-01-11T11:32:57.433Z,32.20
2019-01-11T11:35:27.334Z,33.10
2019-01-11T11:37:57.514Z,33.50
2019-01-11T11:40:27.871Z,33.20
2019-01-11T11:42:57.642Z,33.90
2019-01-11T11:45:27.620Z,33.33
2019-01-11T11:47:57.438Z,32.40
2019-01-11T11:50:27.247Z,29.70
2019-01-11T11:52:57.075Z,31.87
2019-01-11T11:55:26.809Z,30.67
2019-01-11T11:57:56.588Z,33.07
2019-01-11T12:00:27.243Z,30.73
2019-01-11T12:02:57.206Z,28.30
2019-01-11T12:05:26.981Z,27.87
2019-01-11T12:07:56.901Z,28.40
2019-01-11T12:10:26.998Z,24.97
2019-01-11T12:12:56.664Z,28.90
2019-01-11T12:15:26.413Z,27.97
2019-01-11T12:17:56.078Z,25.73
2019-01-11T12:20:29.468Z,26.80
2019-01-11T12:22:59.542Z,26.07
2019-01-11T12:25:29.411Z,26.23
2019-01-11T12:27:59.264Z,25.57
2019-01-11T12:30:29.080Z,26.63
2019-01-11T12:32:58.775Z,26.90
2019-01-11T12:35:28.429Z,26.73
2019-01-11T12:37:58.161Z,28.13
2019-01-11T12:40:27.943Z,26.63
2019-01-11T12:42:57.676Z,27.23
2019-01-11T12:45:27.401Z,26.97
2019-01-11T12:47:57.044Z,26.87
2019-01-11T12:50:26.902Z,27.37
2019-01-11T12:52:56.796Z,29.93
2019-01-11T12:55:26.564Z,29.20
2019-01-11T12:57:56.303Z,44.20
2019-01-11T13:00:26.551Z,50.50
2019-01-11T13:02:56.297Z,51.80
2019-01-11T13:05:26.206Z,45.77
2019-01-11T13:07:55.991Z,38.83
2019-01-11T13:10:25.651Z,31.87
2019-01-11T13:12:55.449Z,29.60
2019-01-11T13:15:25.253Z,28.43
2019-01-11T13:17:55.318Z,25.20
2019-01-11T13:20:25.418Z,20.13
2019-01-11T13:22:55.527Z,15.30
2019-01-11T13:25:25.217Z,12.63
2019-01-11T13:27:55.085Z,13.93
2019-01-11T13:30:24.947Z,13.63
2019-01-11T13:32:54.707Z,12.87
2019-01-11T13:35:24.456Z,12.90
2019-01-11T13:37:54.229Z,13.57
2019-01-11T13:40:24.719Z,13.63
2019-01-11T13:42:54.566Z,12.97
2019-01-11T13:45:24.456Z,12.00
2019-01-11T13:47:54.268Z,11.70
2019-01-11T13:50:33.542Z,11.30
2019-01-11T13:53:03.402Z,8.73
2019-01-11T13:55:33.258Z,9.33
2019-01-11T13:58:03.103Z,9.87
2019-01-11T14:00:33.007Z,9.03
2019-01-11T14:03:02.843Z,9.83
2019-01-11T14:05:32.736Z,9.97
2019-01-11T14:08:02.544Z,9.07
2019-01-11T14:10:32.284Z,8.87
2019-01-11T14:13:02.032Z,8.73
2019-01-11T14:15:32.004Z,8.17
2019-01-11T14:18:01.851Z,7.27
2019-01-11T14:20:31.642Z,8.37
2019-01-11T14:23:01.358Z,9.10
2019-01-11T14:25:31.129Z,8.37
2019-01-11T14:28:00.796Z,7.53
2019-01-11T14:30:30.632Z,9.13
2019-01-11T14:33:00.428Z,8.10
2019-01-11T14:35:30.236Z,8.20
2019-01-11T14:38:00.104Z,8.50
2019-01-11T14:40:29.885Z,8.60
2019-01-11T14:42:59.588Z,8.93
2019-01-11T14:45:29.371Z,9.83
2019-01-11T14:47:59.075Z,8.13
2019-01-11T14:50:28.946Z,7.17
2019-01-11T14:52:58.782Z,7.20
2019-01-11T14:55:28.864Z,8.00
2019-01-11T14:57:58.546Z,7.83
2019-01-11T15:00:28.289Z,7.93
2019-01-11T15:02:58.055Z,8.03
2019-01-11T15:05:27.782Z,6.93
2019-01-11T15:07:57.496Z,7.07
2019-01-11T15:10:27.338Z,6.77
2019-01-11T15:12:57.204Z,6.47
2019-01-11T15:15:26.948Z,7.60
2019-01-11T15:17:56.679Z,7.47
2019-01-11T15:20:26.417Z,6.53
2019-01-11T15:22:56.153Z,6.80
2019-01-11T15:25:25.982Z,7.17
2019-01-11T15:27:55.715Z,6.47
2019-01-11T15:30:25.584Z,6.80
2019-01-11T15:32:55.307Z,7.97
2019-01-11T15:35:25.647Z,7.63
2019-01-11T15:37:55.694Z,6.70
2019-01-11T15:40:27.265Z,6.57
2019-01-11T15:42:57.013Z,6.57
2019-01-11T15:45:26.733Z,7.27
2019-01-11T15:47:56.574Z,8.10
2019-01-11T15:50:42.962Z,7.20
2019-01-11T15:53:12.852Z,7.60
2019-01-11T15:55:42.695Z,7.93
2019-01-11T15:58:12.599Z,7.37
2019-01-11T16:00:45.257Z,7.93
2019-01-11T16:03:15.515Z,7.40
2019-01-11T16:05:45.518Z,6.87
2019-01-11T16:08:15.224Z,7.03
2019-01-11T16:11:16.143Z,5.50
2019-01-11T16:14:18.131Z,5.43
2019-01-11T16:16:49.213Z,4.83
2019-01-11T16:19:18.923Z,4.57
2019-01-11T16:21:48.623Z,4.47
2019-01-11T16:24:18.330Z,4.20
2019-01-11T16:26:48.090Z,5.42
2019-01-11T16:29:17.825Z,4.90
2019-01-11T16:31:47.530Z,4.90
2019-01-11T16:34:17.337Z,4.60
2019-01-11T16:36:47.090Z,5.37
2019-01-11T16:39:17.217Z,6.10
2019-01-11T16:41:46.978Z,6.30
2019-01-11T16:44:16.691Z,6.23
2019-01-11T16:46:46.356Z,6.40
2019-01-11T16:49:16.106Z,6.53
2019-01-11T16:51:45.930Z,6.17
2019-01-11T16:54:15.597Z,6.53
2019-01-11T16:56:45.265Z,6.17
2019-01-11T16:59:14.992Z,6.67
2019-01-11T17:01:44.711Z,6.80
2019-01-11T17:04:14.532Z,7.27
2019-01-11T17:06:44.296Z,7.00
2019-01-11T17:09:14.215Z,7.33
2019-01-11T17:11:43.928Z,7.43
2019-01-11T17:14:13.676Z,8.23
2019-01-11T17:16:43.482Z,7.30
2019-01-11T17:19:13.231Z,7.67
2019-01-11T17:21:42.981Z,8.47
2019-01-11T17:24:12.754Z,7.53
2019-01-11T17:26:42.475Z,7.70
2019-01-11T17:29:12.266Z,8.40
2019-01-11T17:31:41.932Z,7.77
2019-01-11T17:34:11.621Z,8.17
2019-01-11T17:36:41.363Z,7.60
2019-01-11T17:39:11.258Z,8.67
2019-01-11T17:41:41.115Z,8.20
2019-01-11T17:44:10.925Z,8.20
2019-01-11T17:46:40.713Z,8.17
2019-01-11T17:49:10.538Z,9.10
2019-01-11T17:51:40.364Z,8.07
2019-01-11T17:54:10.031Z,8.17
2019-01-11T17:56:39.965Z,8.17
2019-01-11T17:59:09.609Z,8.00
2019-01-11T18:01:39.387Z,9.13
2019-01-11T18:04:09.118Z,9.03
2019-01-11T18:06:38.983Z,8.73
2019-01-11T18:09:09.213Z,8.30
2019-01-11T18:11:38.843Z,8.27
2019-01-11T18:14:08.600Z,8.03
2019-01-11T18:16:38.631Z,8.37
2019-01-11T18:19:08.402Z,8.97
2019-01-11T18:21:38.116Z,8.57
2019-01-11T18:24:07.953Z,8.60
2019-01-11T18:26:37.646Z,8.60
2019-01-11T18:29:07.453Z,8.60
2019-01-11T18:31:37.105Z,7.83
2019-01-11T18:34:07.155Z,8.60
2019-01-11T18:36:36.973Z,9.07
2019-01-11T18:39:08.954Z,8.90
2019-01-11T18:41:38.862Z,9.33
2019-01-11T18:44:08.586Z,8.50
2019-01-11T18:46:38.356Z,9.50
2019-01-11T18:49:08.177Z,8.97
2019-01-11T18:51:37.848Z,9.43
2019-01-11T18:54:07.493Z,9.50
2019-01-11T18:56:37.254Z,9.10
2019-01-11T18:59:07.002Z,8.50
2019-01-11T19:01:36.668Z,9.07
2019-01-11T19:04:06.398Z,8.63
2019-01-11T19:06:36.174Z,8.83
2019-01-11T19:09:08.612Z,9.00
2019-01-11T19:11:38.372Z,9.03
2019-01-11T19:14:08.214Z,8.70
2019-01-11T19:16:37.886Z,9.57
2019-01-11T19:19:07.870Z,9.00
2019-01-11T19:21:37.736Z,8.80
2019-01-11T19:24:07.563Z,10.27
2019-01-11T19:26:37.220Z,13.20
2019-01-11T19:29:08.433Z,12.97
2019-01-11T19:31:38.091Z,15.70
2019-01-11T19:34:07.779Z,14.17
2019-01-11T19:36:37.549Z,13.53
2019-01-11T19:39:08.655Z,13.47
2019-01-11T19:41:38.493Z,12.60
2019-01-11T19:44:08.193Z,12.17
2019-01-11T19:46:37.893Z,11.43
2019-01-11T19:49:07.707Z,9.87
2019-01-11T19:51:37.382Z,10.07
2019-01-11T19:54:07.301Z,11.23
2019-01-11T19:56:36.967Z,10.97
2019-01-11T19:59:06.782Z,11.60
2019-01-11T20:01:36.719Z,10.53
2019-01-11T20:04:06.652Z,10.53
2019-01-11T20:06:36.488Z,11.73
2019-01-11T20:09:08.890Z,11.27
2019-01-11T20:11:38.754Z,12.20
2019-01-11T20:14:08.899Z,12.83
2019-01-11T20:16:38.713Z,12.53
2019-01-11T20:19:08.525Z,12.30
2019-01-11T20:21:38.343Z,11.63
2019-01-11T20:24:08.052Z,12.03
2019-01-11T20:26:37.954Z,11.20
2019-01-11T20:29:07.923Z,11.90
2019-01-11T20:31:37.717Z,10.30
2019-01-11T20:34:07.527Z,9.63
2019-01-11T20:36:41.775Z,10.30
2019-01-11T20:39:12.160Z,9.20
2019-01-11T20:41:41.972Z,8.70
2019-01-11T20:44:11.735Z,9.50
2019-01-11T20:46:41.494Z,10.30
2019-01-11T20:49:11.345Z,10.83
2019-01-11T20:51:41.459Z,10.30
2019-01-11T20:54:11.190Z,11.17
2019-01-11T20:56:40.993Z,11.80
2019-01-11T20:59:10.828Z,11.43
2019-01-11T21:01:40.469Z,11.00
2019-01-11T21:04:10.224Z,11.77
2019-01-11T21:06:40.010Z,13.30
2019-01-11T21:09:10.347Z,14.23
2019-01-11T21:11:40.278Z,13.43
2019-01-11T21:14:10.160Z,11.87
2019-01-11T21:16:39.997Z,12.03
2019-01-11T21:19:09.733Z,11.70
2019-01-11T21:21:39.481Z,11.90
2019-01-11T21:24:09.262Z,11.27
2019-01-11T21:26:39.076Z,11.53
2019-01-11T21:29:08.764Z,11.20
2019-01-11T21:31:38.573Z,10.80
2019-01-11T21:34:08.744Z,9.90
2019-01-11T21:36:38.564Z,10.93
2019-01-11T21:39:08.766Z,9.80
2019-01-11T21:41:38.546Z,9.43
2019-01-11T21:44:08.429Z,9.33
2019-01-11T21:46:38.183Z,9.17
2019-01-11T21:49:07.944Z,9.40
2019-01-11T21:51:37.679Z,9.67
2019-01-11T21:54:07.622Z,9.60
2019-01-11T21:56:37.287Z,9.77
2019-01-11T21:59:07.126Z,10.47
2019-01-11T22:01:37.011Z,9.43
2019-01-11T22:04:06.695Z,10.47
2019-01-11T22:06:36.424Z,9.10
2019-01-11T22:09:08.893Z,8.60
2019-01-11T22:11:38.692Z,8.03
2019-01-11T22:14:08.423Z,8.20
2019-01-11T22:16:38.128Z,8.23
2019-01-11T22:19:07.946Z,8.10
2019-01-11T22:21:37.755Z,7.63
2019-01-11T22:24:07.580Z,7.67
2019-01-11T22:26:37.318Z,7.67
2019-01-11T22:29:08.090Z,7.80
2019-01-11T22:31:37.952Z,7.77
2019-01-11T22:34:07.851Z,8.07
2019-01-11T22:36:37.659Z,7.67
2019-01-11T22:39:09.366Z,8.37
2019-01-11T22:41:39.142Z,7.33
2019-01-11T22:44:08.964Z,7.80
2019-01-11T22:46:39.713Z,7.93
2019-01-11T22:49:09.424Z,8.30
2019-01-11T22:51:39.164Z,9.40
2019-01-11T22:54:10.453Z,9.93
2019-01-11T22:56:40.374Z,10.43
2019-01-11T22:59:10.061Z,9.07
2019-01-11T23:01:50.462Z,9.80
2019-01-11T23:04:21.367Z,9.60
2019-01-11T23:07:05.355Z,10.10
2019-01-11T23:09:39.713Z,9.37
2019-01-11T23:12:31.466Z,9.90
2019-01-11T23:15:01.187Z,10.33
2019-01-11T23:17:38.140Z,10.03
2019-01-11T23:20:12.189Z,10.10
2019-01-11T23:22:41.828Z,10.77
2019-01-11T23:25:11.737Z,10.40
2019-01-11T23:27:41.879Z,10.60
2019-01-11T23:30:17.811Z,11.80
2019-01-11T23:32:47.557Z,11.10
2019-01-11T23:35:17.421Z,12.73
2019-01-11T23:37:47.125Z,13.13
2019-01-11T23:40:17.300Z,12.03
2019-01-11T23:42:47.031Z,13.40
2019-01-11T23:45:16.824Z,12.07
2019-01-11T23:47:46.603Z,11.83
2019-01-11T23:50:17.216Z,12.23
2019-01-11T23:52:47.036Z,12.57
2019-01-11T23:55:16.851Z,12.87
2019-01-11T23:57:46.601Z,11.53
